Time;durP1;ratioP1;P1;durP2;ratioP2;P2;SDS_P1;SDS_P2;PMS_P1;PMS_P2;Temp;Humidity;BMP_temperature;BMP_pressure;BME280_temperature;BME280_humidity;BME280_pressure;Samples;Min_cycle;Max_cycle;Signal;HPM_P1;HPM_P2
2022/06/20 00:02:14;;;;;;;9.13;6.53;;;24.70;70.60;;;;;;5063398;28;20053;-78
2022/06/20 00:04:39;;;;;;;9.38;7.10;;;24.70;70.60;;;;;;5061105;28;20112;-80
2022/06/20 00:07:05;;;;;;;7.75;6.85;;;24.60;70.70;;;;;;5061165;28;20067;-80
2022/06/20 00:09:31;;;;;;;7.20;6.47;;;24.60;70.80;;;;;;5061167;28;20029;-80
2022/06/20 00:11:56;;;;;;;7.30;6.25;;;24.60;71.00;;;;;;5061279;28;20033;-80
2022/06/20 00:14:22;;;;;;;8.57;6.90;;;24.60;71.10;;;;;;5061253;28;20117;-80
2022/06/20 00:16:48;;;;;;;9.70;6.57;;;24.50;71.20;;;;;;5061272;28;20029;-80
2022/06/20 00:19:15;;;;;;;11.70;6.90;;;24.50;71.30;;;;;;5063057;28;20029;-80
2022/06/20 00:21:40;;;;;;;8.25;6.93;;;24.40;71.40;;;;;;5061051;28;20036;-82
2022/06/20 00:24:07;;;;;;;13.80;6.75;;;24.40;71.50;;;;;;5060360;28;20025;-80
2022/06/20 00:26:34;;;;;;;7.57;6.80;;;24.40;71.80;;;;;;5062247;28;20021;-80
2022/06/20 00:29:06;;;;;;;8.35;6.88;;;24.40;72.00;;;;;;5066256;28;20009;-80
2022/06/20 00:31:32;;;;;;;7.57;6.00;;;24.30;72.20;;;;;;5060457;28;20029;-79
2022/06/20 00:33:57;;;;;;;7.40;6.38;;;24.30;72.40;;;;;;5060518;28;20029;-78
2022/06/20 00:36:23;;;;;;;8.25;6.47;;;24.20;72.60;;;;;;5059781;28;20498;-80
2022/06/20 00:38:54;;;;;;;6.60;6.00;;;24.30;72.70;;;;;;5059740;28;20112;-80
2022/06/20 00:41:25;;;;;;;14.73;8.07;;;24.20;72.90;;;;;;5060614;28;20040;-80
2022/06/20 00:43:52;;;;;;;14.73;8.57;;;24.20;73.10;;;;;;5060605;28;20103;-80
2022/06/20 00:46:39;;;;;;;7.10;6.40;;;24.20;73.20;;;;;;5042595;28;20067;-80
2022/06/20 00:49:31;;;;;;;7.95;7.07;;;24.20;73.30;;;;;;5060876;28;20033;-80
2022/06/20 00:52:23;;;;;;;8.00;6.20;;;24.10;73.40;;;;;;5028730;28;20040;-78
2022/06/20 00:55:00;;;;;;;9.63;7.25;;;24.10;73.40;;;;;;5041964;28;20029;-79
2022/06/20 00:57:35;;;;;;;11.73;7.43;;;24.10;73.60;;;;;;5068160;28;20082;-80
2022/06/20 01:00:15;;;;;;;9.50;7.05;;;24.00;73.70;;;;;;5050423;28;20040;-79
2022/06/20 01:02:45;;;;;;;9.52;7.72;;;24.00;73.70;;;;;;5062096;28;20040;-80
2022/06/20 01:05:30;;;;;;;10.38;7.10;;;24.00;73.80;;;;;;5059819;28;20032;-80
2022/06/20 01:08:02;;;;;;;13.50;7.55;;;24.00;73.90;;;;;;5059868;28;20013;-80
2022/06/20 01:10:34;;;;;;;8.30;6.85;;;23.90;73.80;;;;;;5059880;28;20037;-79
2022/06/20 01:13:09;;;;;;;15.18;8.40;;;24.00;74.00;;;;;;5039970;28;20494;-81
2022/06/20 01:15:39;;;;;;;12.38;7.90;;;23.90;74.20;;;;;;5040105;28;20044;-80
2022/06/20 01:18:15;;;;;;;12.15;6.90;;;23.90;74.40;;;;;;5040034;28;20037;-79
2022/06/20 01:20:42;;;;;;;10.65;7.85;;;23.80;74.40;;;;;;5044510;28;20106;-80
2022/06/20 01:23:27;;;;;;;10.70;6.65;;;23.80;74.60;;;;;;5059166;28;20055;-80
2022/06/20 01:26:05;;;;;;;9.43;6.55;;;23.80;74.60;;;;;;5058958;28;20017;-79
2022/06/20 01:28:35;;;;;;;8.02;6.45;;;23.80;74.60;;;;;;5071468;28;20378;-80
2022/06/20 01:31:04;;;;;;;9.02;6.07;;;23.80;74.80;;;;;;5074077;28;20361;-80
2022/06/20 01:33:31;;;;;;;8.02;6.65;;;23.70;75.00;;;;;;5058070;28;20025;-80
2022/06/20 01:38:44;;;;;;;7.03;5.75;;;23.70;75.40;;;;;;5058917;28;20039;-80
2022/06/20 01:43:58;;;;;;;7.18;5.72;;;23.60;75.30;;;;;;5061183;28;20039;-80
2022/06/20 01:46:30;;;;;;;6.05;5.50;;;23.60;75.40;;;;;;5059414;28;20021;-80
2022/06/20 01:49:03;;;;;;;6.38;5.78;;;23.60;75.40;;;;;;5040926;28;20008;-80
2022/06/20 01:51:42;;;;;;;8.68;6.47;;;23.60;75.40;;;;;;5058620;28;20044;-79
2022/06/20 01:54:10;;;;;;;9.38;6.57;;;23.60;75.40;;;;;;5059358;28;20040;-79
2022/06/20 01:56:36;;;;;;;11.55;6.80;;;23.60;75.20;;;;;;5061102;28;20106;-80
2022/06/20 01:59:08;;;;;;;10.02;6.72;;;23.60;74.90;;;;;;5070232;28;20070;-80
2022/06/20 02:01:37;;;;;;;9.45;7.90;;;23.60;74.30;;;;;;5073565;28;20051;-79
2022/06/20 02:04:06;;;;;;;9.90;7.00;;;23.60;74.00;;;;;;5059720;28;20036;-80
2022/06/20 02:06:33;;;;;;;9.45;6.50;;;23.60;73.90;;;;;;5057137;28;20102;-79
2022/06/20 02:08:59;;;;;;;14.48;6.95;;;23.50;73.80;;;;;;5057934;28;20033;-80
2022/06/20 02:11:27;;;;;;;10.45;6.72;;;23.60;73.80;;;;;;5057423;28;20029;-80
2022/06/20 02:13:58;;;;;;;18.00;8.23;;;23.50;73.70;;;;;;5056627;28;20066;-79
2022/06/20 02:16:26;;;;;;;17.00;7.73;;;23.50;73.90;;;;;;5057832;28;20094;-78
2022/06/20 02:18:58;;;;;;;11.40;7.70;;;23.50;74.10;;;;;;5059384;28;20112;-78
2022/06/20 02:21:28;;;;;;;10.05;6.70;;;23.50;74.30;;;;;;5055324;28;20028;-79
2022/06/20 02:24:03;;;;;;;8.15;6.30;;;23.50;74.50;;;;;;5055140;28;20037;-79
2022/06/20 02:26:30;;;;;;;9.85;7.05;;;23.50;74.50;;;;;;5055222;28;20047;-79
2022/06/20 02:29:26;;;;;;;7.28;6.57;;;23.50;74.60;;;;;;5072257;28;20021;-80
2022/06/20 02:32:23;;;;;;;14.95;8.35;;;23.50;74.60;;;;;;5045675;28;20128;-80
2022/06/20 02:34:50;;;;;;;12.50;7.93;;;23.50;74.60;;;;;;5040845;28;20037;-79
2022/06/20 02:37:24;;;;;;;13.30;7.15;;;23.40;74.50;;;;;;5039590;28;20021;-80
2022/06/20 02:39:54;;;;;;;9.18;7.30;;;23.40;74.50;;;;;;5058222;28;20111;-80
2022/06/20 02:42:30;;;;;;;9.13;6.22;;;23.40;74.50;;;;;;5058520;28;20025;-80
2022/06/20 02:44:57;;;;;;;11.25;6.95;;;23.40;74.60;;;;;;5065347;28;20021;-80
2022/06/20 02:47:25;;;;;;;12.38;6.53;;;23.30;74.40;;;;;;5070718;28;20017;-79
2022/06/20 02:49:54;;;;;;;8.38;6.55;;;23.30;74.30;;;;;;5070496;28;20051;-79
2022/06/20 02:52:24;;;;;;;10.18;7.25;;;23.30;74.20;;;;;;5070484;28;20473;-80
2022/06/20 02:54:52;;;;;;;8.75;6.75;;;23.30;73.80;;;;;;5064403;28;20014;-80
2022/06/20 02:57:32;;;;;;;7.75;6.68;;;23.30;73.60;;;;;;5066709;28;20506;-78
2022/06/20 03:00:00;;;;;;;7.93;6.05;;;23.30;73.40;;;;;;5067078;28;20031;-80
2022/06/20 03:02:29;;;;;;;8.13;6.28;;;23.30;73.30;;;;;;5067090;28;20097;-79
2022/06/20 03:04:55;;;;;;;6.53;5.93;;;23.30;73.00;;;;;;5058450;28;20033;-81
2022/06/20 03:07:27;;;;;;;8.63;6.13;;;23.30;72.80;;;;;;5040748;28;20025;-80
2022/06/20 03:10:00;;;;;;;7.28;6.28;;;23.30;72.80;;;;;;5040405;28;20021;-79
2022/06/20 03:12:25;;;;;;;7.47;6.57;;;23.30;72.70;;;;;;5059115;28;20029;-78
2022/06/20 03:14:58;;;;;;;9.55;6.15;;;23.30;72.70;;;;;;5061614;28;20031;-80
2022/06/20 03:17:24;;;;;;;7.95;6.68;;;23.20;72.90;;;;;;5043249;28;20021;-80
2022/06/20 03:19:54;;;;;;;8.90;6.82;;;23.30;73.10;;;;;;5061564;28;20047;-82
2022/06/20 03:22:29;;;;;;;8.00;6.60;;;23.20;73.00;;;;;;5044751;28;20268;-83
2022/06/20 03:24:55;;;;;;;6.22;5.63;;;23.30;73.10;;;;;;5066037;28;20025;-86
2022/06/20 03:27:29;;;;;;;6.22;5.63;;;23.30;73.00;;;;;;5055479;28;20020;-83
2022/06/20 03:30:00;;;;;;;7.68;5.72;;;23.30;72.60;;;;;;5075667;28;20031;-85
2022/06/20 03:32:26;;;;;;;6.35;5.57;;;23.30;72.50;;;;;;5079328;28;20056;-85
2022/06/20 03:34:53;;;;;;;5.43;4.95;;;23.40;72.60;;;;;;5064044;28;20040;-83
2022/06/20 03:37:20;;;;;;;5.25;4.60;;;23.40;72.50;;;;;;5066497;28;20029;-85
2022/06/20 03:39:47;;;;;;;5.70;5.07;;;23.50;71.80;;;;;;5067911;28;20043;-83
2022/06/20 03:42:14;;;;;;;5.38;4.78;;;23.50;71.40;;;;;;5053502;28;20032;-84
2022/06/20 03:44:54;;;;;;;6.15;5.43;;;23.50;71.20;;;;;;5065167;28;20037;-82
2022/06/20 03:47:53;;;;;;;5.45;4.90;;;23.60;70.90;;;;;;5068113;28;20037;-83
2022/06/20 03:50:31;;;;;;;5.30;4.80;;;23.60;71.00;;;;;;5065141;28;20057;-83
2022/06/20 03:53:02;;;;;;;6.68;5.53;;;23.70;70.80;;;;;;5069843;28;20067;-83
2022/06/20 03:55:33;;;;;;;7.50;6.03;;;23.70;71.00;;;;;;5069319;28;20493;-84
2022/06/20 03:58:30;;;;;;;5.93;5.35;;;23.80;70.90;;;;;;5076968;28;20469;-83
2022/06/20 04:01:08;;;;;;;6.90;5.07;;;23.80;70.60;;;;;;5088194;28;20024;-84
2022/06/20 04:03:44;;;;;;;8.88;6.10;;;23.90;69.70;;;;;;5085608;28;20132;-83
2022/06/20 04:06:29;;;;;;;8.18;6.22;;;23.90;69.20;;;;;;5068953;28;20048;-82
2022/06/20 04:11:51;;;;;;;8.13;5.82;;;24.00;68.70;;;;;;5069343;28;20071;-83
2022/06/20 04:14:22;;;;;;;5.97;5.07;;;24.00;68.60;;;;;;5068321;28;20025;-83
2022/06/20 04:16:51;;;;;;;8.63;6.15;;;24.10;68.70;;;;;;5071414;28;20029;-83
2022/06/20 04:19:35;;;;;;;6.20;5.00;;;24.20;68.70;;;;;;5053584;28;20025;-81
2022/06/20 04:22:11;;;;;;;8.48;5.65;;;24.30;68.70;;;;;;5068490;28;20013;-82
2022/06/20 04:24:51;;;;;;;7.97;4.93;;;24.50;67.80;;;;;;5045572;28;20029;-83
2022/06/20 04:27:20;;;;;;;5.75;5.25;;;24.60;67.10;;;;;;5073605;28;20494;-82
2022/06/20 04:29:54;;;;;;;5.20;4.70;;;24.70;66.60;;;;;;5062656;28;20021;-84
2022/06/20 04:32:32;;;;;;;8.15;5.80;;;24.90;66.10;;;;;;5062461;28;20033;-82
2022/06/20 04:35:23;;;;;;;9.63;5.72;;;25.00;65.70;;;;;;5061921;28;20112;-82
2022/06/20 04:38:21;;;;;;;6.82;5.32;;;25.10;65.40;;;;;;5065158;28;20025;-83
2022/06/20 04:41:11;;;;;;;7.40;5.38;;;25.30;64.80;;;;;;5045073;28;20038;-82
2022/06/20 04:43:48;;;;;;;8.30;6.05;;;25.40;64.30;;;;;;5061660;28;20083;-84
2022/06/20 04:46:26;;;;;;;8.45;6.20;;;25.60;63.60;;;;;;5044310;28;20450;-84
2022/06/20 04:48:52;;;;;;;7.30;5.75;;;25.60;63.30;;;;;;5065445;28;20025;-84
2022/06/20 04:51:23;;;;;;;11.82;6.13;;;25.60;63.00;;;;;;5063823;28;20470;-84
2022/06/20 04:53:50;;;;;;;13.37;6.73;;;25.60;63.40;;;;;;5062521;28;20025;-83
2022/06/20 04:56:25;;;;;;;12.30;6.18;;;25.60;62.40;;;;;;5044474;28;20414;-84
2022/06/20 04:59:19;;;;;;;15.20;6.97;;;25.70;62.20;;;;;;5049360;28;20027;-83
2022/06/20 05:01:45;;;;;;;21.10;8.20;;;25.90;61.80;;;;;;5038240;28;20331;-84
2022/06/20 05:04:13;;;;;;;17.58;7.82;;;25.90;61.30;;;;;;5042335;28;20170;-83
2022/06/20 05:06:41;;;;;;;14.18;7.32;;;26.10;61.30;;;;;;5043474;28;20032;-83
2022/06/20 05:09:16;;;;;;;12.75;7.05;;;26.60;60.60;;;;;;5061174;28;20017;-83
2022/06/20 05:12:07;;;;;;;13.70;6.07;;;28.10;58.30;;;;;;5060438;28;20013;-82
2022/06/20 05:14:36;;;;;;;11.45;6.38;;;29.30;54.70;;;;;;5061709;28;20021;-83
2022/06/20 05:17:05;;;;;;;18.15;7.07;;;29.00;53.90;;;;;;5062010;28;20078;-83
2022/06/20 05:19:38;;;;;;;17.77;7.97;;;28.50;54.70;;;;;;5044959;28;20033;-84
2022/06/20 05:22:11;;;;;;;11.90;7.22;;;27.90;55.50;;;;;;5047672;28;20514;-86
2022/06/20 05:24:39;;;;;;;16.05;7.30;;;27.50;56.40;;;;;;5057237;28;20022;-85
2022/06/20 05:27:37;;;;;;;13.27;6.75;;;27.10;56.80;;;;;;5076026;28;20009;-85
2022/06/20 05:30:07;;;;;;;12.55;7.20;;;26.90;57.40;;;;;;5076607;28;20048;-87
2022/06/20 05:32:53;;;;;;;12.13;6.43;;;27.80;57.10;;;;;;5072302;28;20043;-83
2022/06/20 05:35:35;;;;;;;11.13;6.63;;;29.20;54.00;;;;;;5043985;28;20025;-85
2022/06/20 05:38:34;;;;;;;18.02;7.22;;;30.10;52.00;;;;;;5060329;28;20486;-84
2022/06/20 05:41:01;;;;;;;18.25;6.97;;;30.30;51.10;;;;;;5061031;28;20031;-83
2022/06/20 05:43:29;;;;;;;14.30;7.57;;;31.10;50.30;;;;;;5060236;28;20037;-83
2022/06/20 05:46:04;;;;;;;12.70;6.85;;;32.40;47.80;;;;;;5060311;28;20013;-83
2022/06/20 05:48:54;;;;;;;15.45;7.22;;;33.30;46.60;;;;;;5050119;28;20044;-84
2022/06/20 05:51:23;;;;;;;17.20;7.20;;;33.30;45.80;;;;;;5079636;28;20029;-85
2022/06/20 05:54:00;;;;;;;12.68;7.15;;;32.50;46.50;;;;;;5079931;28;20033;-84
2022/06/20 05:56:30;;;;;;;14.23;7.15;;;33.30;46.30;;;;;;5062002;22;20046;-83
2022/06/20 05:58:58;;;;;;;13.90;7.20;;;34.10;45.20;;;;;;5032147;28;20022;-84
2022/06/20 06:01:40;;;;;;;20.70;7.45;;;33.90;44.80;;;;;;5025623;28;20112;-84
2022/06/20 06:04:10;;;;;;;13.88;8.15;;;33.40;45.10;;;;;;5027152;28;20093;-85
2022/06/20 06:06:42;;;;;;;17.17;6.57;;;31.90;46.90;;;;;;5033700;28;20061;-85
2022/06/20 06:09:28;;;;;;;23.60;7.40;;;30.50;49.10;;;;;;5015212;28;20479;-85
2022/06/20 06:11:59;;;;;;;18.33;6.53;;;29.40;50.60;;;;;;4998360;28;20033;-84
2022/06/20 06:14:39;;;;;;;13.00;6.85;;;28.50;52.20;;;;;;5016248;28;20414;-85
2022/06/20 06:17:08;;;;;;;15.13;7.25;;;28.20;54.20;;;;;;5016470;28;20030;-84
2022/06/20 06:19:49;;;;;;;17.42;6.93;;;29.60;51.00;;;;;;4999599;28;20050;-85
2022/06/20 06:22:17;;;;;;;15.40;6.55;;;29.50;50.50;;;;;;5017252;28;20084;-85
2022/06/20 06:24:46;;;;;;;16.10;6.93;;;29.30;51.00;;;;;;5016965;28;20049;-84
2022/06/20 06:27:27;;;;;;;16.77;7.53;;;29.40;51.50;;;;;;5026681;28;20033;-84
2022/06/20 06:30:03;;;;;;;14.90;7.47;;;31.10;49.60;;;;;;5004892;28;20459;-84
2022/06/20 06:32:43;;;;;;;17.55;7.03;;;31.70;48.10;;;;;;5018509;28;20055;-85
2022/06/20 06:35:12;;;;;;;13.43;6.75;;;32.10;46.80;;;;;;5026406;28;20026;-84
2022/06/20 06:38:06;;;;;;;21.15;7.00;;;31.00;47.60;;;;;;5015954;28;20034;-84
2022/06/20 06:40:38;;;;;;;15.30;6.63;;;29.90;49.60;;;;;;5000197;28;20043;-83
2022/06/20 06:43:18;;;;;;;14.90;6.18;;;29.40;50.90;;;;;;4997319;28;20022;-86
2022/06/20 06:45:45;;;;;;;13.40;6.47;;;29.10;51.80;;;;;;4995909;28;20030;-84
2022/06/20 06:48:14;;;;;;;15.27;7.25;;;30.60;51.10;;;;;;5000991;28;20018;-85
2022/06/20 06:50:49;;;;;;;12.77;7.13;;;32.00;48.60;;;;;;5016922;28;20029;-84
2022/06/20 06:53:36;;;;;;;19.52;6.93;;;33.10;46.30;;;;;;5017024;28;20065;-83
2022/06/20 06:56:18;;;;;;;10.05;6.72;;;32.20;46.40;;;;;;5002584;28;20026;-84
2022/06/20 06:58:46;;;;;;;17.38;6.68;;;30.90;48.50;;;;;;5029550;28;20036;-85
2022/06/20 07:01:54;;;;;;;11.73;6.45;;;30.70;49.90;;;;;;5020704;28;20032;-84
2022/06/20 07:04:43;;;;;;;17.58;6.85;;;32.60;47.50;;;;;;5004674;28;20041;-84
2022/06/20 07:07:46;;;;;;;19.30;6.55;;;34.20;44.80;;;;;;5017977;28;20025;-85
2022/06/20 07:10:33;;;;;;;14.73;6.55;;;35.40;42.70;;;;;;5028235;28;20029;-85
2022/06/20 07:13:06;;;;;;;10.60;6.22;;;35.90;41.80;;;;;;5019714;28;20362;-86
2022/06/20 07:15:33;;;;;;;12.73;7.07;;;36.10;41.60;;;;;;5046954;28;20165;-87
2022/06/20 07:18:11;;;;;;;12.38;6.30;;;36.40;41.00;;;;;;5033146;28;20005;-86
2022/06/20 07:20:43;;;;;;;9.75;6.13;;;36.10;41.40;;;;;;5040641;28;20034;-86
2022/06/20 07:23:17;;;;;;;18.08;6.80;;;35.10;41.50;;;;;;5037147;28;20033;-86
2022/06/20 07:26:21;;;;;;;;;;;;;;;;;;;;;
2022/06/20 07:29:06;;;;;;;11.38;6.07;;;31.60;45.50;;;;;;5034667;28;20061;-87
2022/06/20 07:32:04;;;;;;;11.63;6.05;;;30.20;47.80;;;;;;5029558;28;20053;-86
2022/06/20 07:34:54;;;;;;;13.52;6.15;;;29.40;49.70;;;;;;5032447;28;20061;-89
2022/06/20 07:38:04;;;;;;;15.02;6.60;;;29.00;49.90;;;;;;5028001;28;20033;-86
2022/06/20 07:41:08;;;;;;;20.20;6.15;;;28.80;50.80;;;;;;4990855;28;20026;-86
2022/06/20 07:44:19;;;;;;;11.90;5.60;;;28.70;50.80;;;;;;4986944;28;20455;-87
2022/06/20 07:46:51;;;;;;;23.02;7.43;;;28.80;50.80;;;;;;4987672;28;20085;-87
2022/06/20 07:49:29;;;;;;;15.98;6.40;;;28.90;50.60;;;;;;4986797;28;20032;-87
2022/06/20 07:52:29;;;;;;;;;;;;;;;;;;;;;
2022/06/20 07:55:04;;;;;;;14.88;6.28;;;29.10;49.90;;;;;;5009743;28;20057;-86
2022/06/20 07:57:35;;;;;;;18.08;7.00;;;29.40;49.70;;;;;;4999030;28;20065;-85
2022/06/20 08:00:15;;;;;;;14.43;5.70;;;29.70;49.30;;;;;;5039273;28;20029;-86
2022/06/20 08:03:16;;;;;;;;;;;;;;;;;;;;;
2022/06/20 08:06:05;;;;;;;;;;;;;;;;;;;;;
2022/06/20 08:09:01;;;;;;;9.65;6.20;;;30.20;48.20;;;;;;5034395;28;20065;-86
2022/06/20 08:16:11;;;;;;;14.32;5.75;;;30.10;47.80;;;;;;4939688;29;20038;-86
2022/06/20 08:19:07;;;;;;;9.63;5.45;;;30.00;47.90;;;;;;4932791;29;20035;-85
2022/06/20 08:21:53;;;;;;;15.98;5.18;;;30.20;47.50;;;;;;4922902;29;20024;-88
2022/06/20 08:24:51;;;;;;;11.38;5.57;;;30.20;47.10;;;;;;4917647;29;20043;-85
2022/06/20 08:27:44;;;;;;;16.80;5.63;;;30.30;47.30;;;;;;4990675;28;20054;-85
2022/06/20 08:33:33;;;;;;;10.30;4.57;;;30.20;46.20;;;;;;5024123;28;20030;-86
2022/06/20 08:36:42;;;;;;;12.77;5.63;;;30.20;46.20;;;;;;5004906;28;20046;-87
2022/06/20 08:39:53;;;;;;;11.65;4.72;;;30.40;46.00;;;;;;5006550;28;20101;-86
2022/06/20 08:42:21;;;;;;;11.47;4.50;;;30.80;45.80;;;;;;5008476;28;20023;-87
2022/06/20 08:45:06;;;;;;;9.75;5.10;;;31.10;45.10;;;;;;4982898;28;20029;-85
2022/06/20 08:47:56;;;;;;;10.25;5.50;;;31.00;45.30;;;;;;4983179;28;20026;-86
2022/06/20 08:50:59;;;;;;;16.98;4.90;;;31.00;45.30;;;;;;4981827;28;20090;-87
2022/06/20 08:53:45;;;;;;;11.85;5.00;;;31.10;44.70;;;;;;4984009;28;20456;-86
2022/06/20 08:56:51;;;;;;;14.77;5.20;;;31.00;45.10;;;;;;4986619;28;20037;-85
2022/06/20 09:00:46;;;;;;;;;;;;;;;;;;;;;
2022/06/20 09:03:35;;;;;;;9.27;5.45;;;30.90;45.10;;;;;;4892383;29;20095;-85
2022/06/20 09:07:01;;;;;;;;;;;;;;;;;;;;;
2022/06/20 09:13:32;;;;;;;;;;;30.80;45.30;;;;;;4874714;29;20129;-84
2022/06/20 09:19:50;;;;;;;8.82;4.32;;;31.40;44.50;;;;;;4921882;29;19959;-86
2022/06/20 09:33:03;;;;;;;8.30;4.88;;;31.50;44.20;;;;;;4942862;29;20027;-85
2022/06/20 09:36:05;;;;;;;13.50;4.35;;;31.90;43.90;;;;;;4907694;29;20044;-85
2022/06/20 09:38:49;;;;;;;12.70;4.00;;;32.40;42.90;;;;;;4925297;29;20164;-85
2022/06/20 09:41:28;;;;;;;8.60;4.30;;;32.80;41.90;;;;;;4938200;29;20028;-85
2022/06/20 09:44:04;;;;;;;5.50;3.90;;;33.20;41.80;;;;;;4929767;28;20042;-85
2022/06/20 09:46:51;;;;;;;11.02;4.47;;;33.40;41.70;;;;;;5007296;28;20022;-87
2022/06/20 09:49:35;;;;;;;9.63;4.40;;;33.40;41.10;;;;;;5012837;28;20026;-90
2022/06/20 09:52:11;;;;;;;8.75;4.28;;;33.20;40.50;;;;;;5002901;28;20106;-84
2022/06/20 09:55:38;;;;;;;13.13;4.45;;;33.00;41.50;;;;;;5021047;28;20048;-85
2022/06/20 09:58:18;;;;;;;10.82;4.22;;;32.60;41.50;;;;;;5005362;28;20041;-84
2022/06/20 10:00:54;;;;;;;8.45;4.30;;;32.10;42.40;;;;;;5039782;28;20026;-86
2022/06/20 10:03:23;;;;;;;6.40;3.85;;;31.60;42.70;;;;;;5029625;28;20030;-84
2022/06/20 10:06:18;;;;;;;10.38;4.30;;;31.30;43.30;;;;;;5001677;28;20030;-84
2022/06/20 10:09:00;;;;;;;11.73;4.45;;;31.10;43.50;;;;;;4995113;28;20033;-83
2022/06/20 10:11:45;;;;;;;13.95;4.38;;;30.90;44.40;;;;;;5002912;28;20030;-83
2022/06/20 10:14:29;;;;;;;7.85;3.88;;;31.00;43.50;;;;;;5003333;28;20046;-85
2022/06/20 10:17:33;;;;;;;7.85;3.67;;;30.90;43.80;;;;;;5008511;28;20036;-84
2022/06/20 10:20:17;;;;;;;5.82;3.72;;;30.70;43.20;;;;;;5003626;28;20030;-84
2022/06/20 10:23:27;;;;;;;11.68;6.15;;;30.40;43.70;;;;;;5005953;28;20084;-84
2022/06/20 10:26:15;;;;;;;5.53;3.45;;;30.30;42.80;;;;;;5010835;28;20516;-85
2022/06/20 10:29:12;;;;;;;9.38;3.78;;;30.20;43.50;;;;;;5033334;28;20514;-85
2022/06/20 10:31:42;;;;;;;9.60;4.28;;;30.10;43.60;;;;;;5008119;28;20041;-83
2022/06/20 10:34:20;;;;;;;15.13;4.00;;;30.20;43.90;;;;;;5002372;28;20030;-84
2022/06/20 10:37:15;;;;;;;7.82;3.55;;;30.20;43.80;;;;;;5020430;28;20028;-81
2022/06/20 10:39:44;;;;;;;12.27;4.18;;;30.20;44.50;;;;;;5015927;28;20038;-81
2022/06/20 10:42:30;;;;;;;11.48;4.30;;;30.50;44.60;;;;;;5025801;28;20211;-81
2022/06/20 10:45:04;;;;;;;11.32;4.28;;;30.60;44.30;;;;;;5025461;28;20029;-81
2022/06/20 10:47:36;;;;;;;8.23;4.35;;;30.60;44.60;;;;;;5028307;28;20090;-79
2022/06/20 10:50:31;;;;;;;7.82;4.22;;;30.90;44.60;;;;;;5027345;28;20018;-81
2022/06/20 10:53:15;;;;;;;15.88;4.18;;;31.30;44.30;;;;;;5025365;28;20030;-80
2022/06/20 10:55:44;;;;;;;6.05;3.53;;;31.50;41.90;;;;;;5030704;28;20049;-80
2022/06/20 10:58:25;;;;;;;9.05;3.90;;;31.60;42.60;;;;;;5047506;28;20017;-80
2022/06/20 11:01:01;;;;;;;6.43;3.58;;;31.70;42.20;;;;;;5040613;28;20033;-80
2022/06/20 11:03:30;;;;;;;7.20;3.97;;;31.60;41.00;;;;;;5044777;28;20158;-80
2022/06/20 11:06:08;;;;;;;6.30;3.60;;;31.70;40.90;;;;;;5032794;28;20025;-77
2022/06/20 11:08:52;;;;;;;6.97;3.85;;;31.70;41.30;;;;;;5020168;28;20044;-78
2022/06/20 11:11:44;;;;;;;13.73;3.92;;;31.70;41.60;;;;;;5034702;28;20026;-81
2022/06/20 11:14:16;;;;;;;10.05;3.65;;;31.70;41.40;;;;;;5006260;28;20029;-80
2022/06/20 11:17:31;;;;;;;10.32;4.05;;;31.90;41.30;;;;;;5006572;28;20018;-83
2022/06/20 11:20:27;;;;;;;7.78;3.72;;;31.80;41.00;;;;;;5001551;28;20491;-81
2022/06/20 11:23:35;;;;;;;8.90;3.97;;;32.00;40.80;;;;;;5019562;28;20018;-84
2022/06/20 11:26:55;;;;;;;11.77;3.75;;;32.20;40.40;;;;;;5023351;28;20025;-83
2022/06/20 11:29:35;;;;;;;12.57;4.22;;;32.10;40.70;;;;;;5022180;28;20249;-83
2022/06/20 11:32:24;;;;;;;9.52;3.75;;;32.10;40.60;;;;;;5034199;28;20081;-80
2022/06/20 11:35:20;;;;;;;8.50;3.63;;;32.20;40.20;;;;;;5017171;28;20022;-81
2022/06/20 11:37:48;;;;;;;7.88;4.22;;;32.20;40.60;;;;;;5036301;28;20030;-82
2022/06/20 11:40:35;;;;;;;9.13;4.25;;;32.40;40.70;;;;;;5037518;28;20068;-81
2022/06/20 11:43:27;;;;;;;10.75;3.63;;;32.50;41.10;;;;;;5035138;28;20030;-82
2022/06/20 11:46:17;;;;;;;10.27;4.25;;;32.50;40.70;;;;;;5004837;28;20109;-81
2022/06/20 11:49:03;;;;;;;6.80;3.55;;;32.60;40.00;;;;;;5032375;28;20025;-83
2022/06/20 11:51:54;;;;;;;11.23;3.85;;;32.80;40.30;;;;;;5008301;28;20386;-83
2022/06/20 11:54:49;;;;;;;5.20;3.80;;;33.00;39.60;;;;;;5004831;28;20363;-85
2022/06/20 11:57:25;;;;;;;9.55;3.70;;;32.60;40.30;;;;;;5062459;22;20459;-86
2022/06/20 12:00:06;;;;;;;7.50;3.13;;;32.20;41.50;;;;;;5069650;28;20021;-84
2022/06/20 12:03:05;;;;;;;6.97;3.40;;;32.20;41.50;;;;;;5068847;28;20082;-85
2022/06/20 12:05:59;;;;;;;8.77;3.60;;;32.60;40.70;;;;;;5049456;28;20059;-84
2022/06/20 12:09:01;;;;;;;12.95;4.47;;;33.00;40.10;;;;;;5027328;28;20072;-84
2022/06/20 12:11:30;;;;;;;11.65;4.40;;;33.20;40.10;;;;;;5029262;28;20025;-84
2022/06/20 12:14:05;;;;;;;13.57;3.95;;;33.30;40.20;;;;;;5047032;28;20036;-84
2022/06/20 12:16:48;;;;;;;14.90;4.75;;;33.30;40.40;;;;;;5067980;28;20048;-83
2022/06/20 12:25:37;;;;;;;6.45;4.07;;;32.00;41.50;;;;;;5065530;28;20401;-84
2022/06/20 12:28:22;;;;;;;11.50;4.25;;;31.60;42.80;;;;;;5069690;28;20085;-84
2022/06/20 12:31:13;;;;;;;6.95;4.05;;;31.60;42.90;;;;;;5043500;28;20014;-84
2022/06/20 12:33:43;;;;;;;11.93;4.15;;;31.90;42.80;;;;;;5056844;28;20041;-85
2022/06/20 12:36:24;;;;;;;9.43;4.13;;;32.20;42.10;;;;;;5043339;28;20026;-87
2022/06/20 12:39:38;;;;;;;8.65;4.35;;;32.10;41.70;;;;;;5026380;28;20029;-84
2022/06/20 12:42:43;;;;;;;12.13;4.25;;;;;;;;;;5039539;28;20037;-83
2022/06/20 12:45:27;;;;;;;20.10;5.93;;;31.60;42.40;;;;;;4966712;29;20035;-84
2022/06/20 12:48:14;;;;;;;11.10;5.18;;;31.60;42.60;;;;;;4973446;28;20035;-85
2022/06/20 12:50:43;;;;;;;17.63;4.65;;;31.80;42.90;;;;;;5024423;28;20040;-85
2022/06/20 12:53:35;;;;;;;13.55;4.78;;;31.90;42.70;;;;;;5062904;28;20052;-85
2022/06/20 12:56:22;;;;;;;11.90;4.03;;;32.30;42.20;;;;;;5036375;28;20033;-85
2022/06/20 12:59:25;;;;;;;39.30;7.32;;;32.40;41.70;;;;;;5070657;28;20041;-85
2022/06/20 13:02:29;;;;;;;7.82;4.85;;;32.60;41.20;;;;;;5067573;28;20028;-86
2022/06/20 13:05:27;;;;;;;7.68;3.88;;;32.60;41.10;;;;;;4987390;28;20086;-86
2022/06/20 13:08:11;;;;;;;13.75;4.72;;;32.70;41.10;;;;;;4982817;28;20019;-85
2022/06/20 13:11:01;;;;;;;13.57;3.70;;;32.80;41.00;;;;;;5049342;28;20067;-84
2022/06/20 13:13:29;;;;;;;16.75;4.53;;;32.90;41.10;;;;;;5044940;28;20025;-85
2022/06/20 13:16:04;;;;;;;7.38;4.00;;;33.10;41.10;;;;;;5044921;28;20029;-85
2022/06/20 13:18:54;;;;;;;7.65;3.70;;;33.20;40.50;;;;;;5045776;28;20100;-85
2022/06/20 13:21:28;;;;;;;12.82;4.60;;;33.10;39.90;;;;;;5048376;28;20484;-84
2022/06/20 13:24:15;;;;;;;9.10;4.55;;;32.90;40.40;;;;;;5043519;28;20026;-84
2022/06/20 13:27:07;;;;;;;10.23;4.30;;;32.70;40.50;;;;;;5054746;28;20102;-84
2022/06/20 13:29:42;;;;;;;12.65;3.97;;;32.70;40.90;;;;;;5072125;28;20024;-83
2022/06/20 13:32:57;;;;;;;11.82;4.05;;;32.80;40.70;;;;;;5063984;28;20032;-84
2022/06/20 13:35:54;;;;;;;8.65;3.72;;;33.00;40.60;;;;;;5054149;28;20037;-82
2022/06/20 13:38:27;;;;;;;12.30;4.22;;;33.20;40.30;;;;;;5063175;28;20051;-84
2022/06/20 13:41:07;;;;;;;6.65;3.72;;;33.40;39.80;;;;;;5066635;28;20083;-84
2022/06/20 13:44:03;;;;;;;7.07;3.85;;;33.20;40.00;;;;;;5068936;28;20033;-85
2022/06/20 13:46:33;;;;;;;9.75;4.30;;;33.10;40.20;;;;;;5063949;28;20091;-85
2022/06/20 13:49:11;;;;;;;5.70;3.88;;;33.00;40.80;;;;;;5061324;28;20070;-83
2022/06/20 13:51:45;;;;;;;7.38;4.32;;;33.10;41.00;;;;;;5060380;28;20069;-85
2022/06/20 13:54:21;;;;;;;8.00;3.97;;;33.40;40.70;;;;;;5041803;28;20111;-85
2022/06/20 13:56:55;;;;;;;15.70;5.15;;;33.60;40.40;;;;;;5031870;28;20036;-85
2022/06/20 13:59:58;;;;;;;7.97;4.18;;;33.50;40.20;;;;;;5083884;28;20028;-85
2022/06/20 14:02:43;;;;;;;7.75;4.22;;;33.50;40.00;;;;;;5065434;28;20028;-83
2022/06/20 14:05:25;;;;;;;10.93;3.83;;;33.20;40.20;;;;;;5066371;28;20040;-84
2022/06/20 14:08:05;;;;;;;7.03;3.92;;;33.20;40.30;;;;;;5082335;28;20040;-84
2022/06/20 14:10:35;;;;;;;21.02;4.88;;;33.30;40.30;;;;;;5066007;28;20041;-83
2022/06/20 14:13:12;;;;;;;10.40;4.45;;;33.40;40.40;;;;;;5058726;28;20385;-82
2022/06/20 14:15:41;;;;;;;10.07;3.42;;;33.40;40.10;;;;;;5062701;28;20033;-82
2022/06/20 14:18:13;;;;;;;6.93;3.40;;;33.50;40.10;;;;;;5064146;28;20025;-84
2022/06/20 14:20:54;;;;;;;9.80;4.38;;;33.60;40.10;;;;;;5046653;28;20051;-84
2022/06/20 14:23:22;;;;;;;11.98;3.80;;;33.70;39.70;;;;;;5063008;28;20032;-82
2022/06/20 14:25:51;;;;;;;13.15;4.07;;;33.70;39.00;;;;;;5062424;28;20078;-81
2022/06/20 14:28:22;;;;;;;11.38;4.30;;;33.60;39.30;;;;;;5059404;28;20085;-82
2022/06/20 14:30:52;;;;;;;11.13;4.65;;;33.50;39.60;;;;;;5043487;28;20083;-84
2022/06/20 14:33:55;;;;;;;5.30;3.35;;;33.30;39.90;;;;;;5026012;28;20036;-81
2022/06/20 14:36:27;;;;;;;7.10;4.13;;;33.10;40.50;;;;;;5063444;28;20342;-79